createdAt,value
2019-05-10T00:01:54.267Z,15.90
2019-05-10T00:05:02.114Z,15.86
2019-05-10T00:08:09.945Z,15.83
2019-05-10T00:11:34.839Z,15.79
2019-05-10T00:14:44.337Z,15.77
2019-05-10T00:17:34.481Z,15.75
2019-05-10T00:20:24.602Z,15.76
2019-05-10T00:23:15.673Z,15.77
2019-05-10T00:26:05.889Z,15.78
2019-05-10T00:28:56.873Z,15.76
2019-05-10T00:31:46.486Z,15.77
2019-05-10T00:34:36.300Z,15.76
2019-05-10T00:37:26.495Z,15.77
2019-05-10T00:40:16.563Z,15.76
2019-05-10T00:43:07.746Z,15.76
2019-05-10T00:45:57.291Z,15.77
2019-05-10T00:48:47.787Z,15.77
2019-05-10T00:51:38.023Z,15.78
2019-05-10T00:54:28.248Z,15.77
2019-05-10T00:57:18.573Z,15.76
2019-05-10T01:00:09.060Z,15.77
2019-05-10T01:02:59.089Z,15.75
2019-05-10T01:05:49.046Z,15.76
2019-05-10T01:08:38.811Z,15.76
2019-05-10T01:11:29.111Z,15.76
2019-05-10T01:14:19.327Z,15.75
2019-05-10T01:17:09.381Z,15.77
2019-05-10T01:19:59.634Z,15.78
2019-05-10T01:22:49.926Z,15.80
2019-05-10T01:25:40.257Z,15.80
2019-05-10T01:28:30.348Z,15.79
2019-05-10T01:31:20.432Z,15.79
2019-05-10T01:34:10.427Z,15.79
2019-05-10T01:37:00.654Z,15.78
2019-05-10T01:39:50.421Z,15.78
2019-05-10T01:42:40.503Z,15.74
2019-05-10T01:45:30.593Z,15.72
2019-05-10T01:48:20.061Z,15.65
2019-05-10T01:51:09.900Z,15.64
2019-05-10T01:54:00.117Z,15.65
2019-05-10T01:56:49.900Z,15.65
2019-05-10T01:59:39.527Z,15.63
2019-05-10T02:02:29.558Z,15.62
2019-05-10T02:05:19.739Z,15.60
2019-05-10T02:08:09.917Z,15.60
2019-05-10T02:11:00.121Z,15.57
2019-05-10T02:13:50.026Z,15.57
2019-05-10T02:16:39.866Z,15.55
2019-05-10T02:19:29.979Z,15.53
2019-05-10T02:22:20.268Z,15.52
2019-05-10T02:25:11.840Z,15.52
2019-05-10T02:28:01.705Z,15.51
2019-05-10T02:30:51.740Z,15.52
2019-05-10T02:33:41.461Z,15.50
2019-05-10T02:36:31.430Z,15.49
2019-05-10T02:39:21.228Z,15.50
2019-05-10T02:42:11.309Z,15.52
2019-05-10T02:45:01.380Z,15.55
2019-05-10T02:47:50.861Z,15.54
2019-05-10T02:50:40.801Z,15.56
2019-05-10T02:53:30.302Z,15.58
2019-05-10T02:56:30.576Z,15.62
2019-05-10T02:59:15.327Z,15.62
2019-05-10T03:02:07.668Z,15.62
2019-05-10T03:05:00.591Z,15.61
2019-05-10T03:07:55.197Z,15.62
2019-05-10T03:10:58.960Z,15.63
2019-05-10T03:13:53.991Z,15.64
2019-05-10T03:16:48.964Z,15.63
2019-05-10T03:19:40.498Z,15.62
2019-05-10T03:22:33.587Z,15.57
2019-05-10T03:25:23.978Z,15.60
2019-05-10T03:28:13.957Z,15.55
2019-05-10T03:31:04.143Z,15.58
2019-05-10T03:33:57.168Z,15.59
2019-05-10T03:36:46.089Z,15.58
2019-05-10T03:39:35.829Z,15.59
2019-05-10T03:42:26.246Z,15.59
2019-05-10T03:45:16.526Z,15.58
2019-05-10T03:48:06.515Z,15.58
2019-05-10T03:50:55.981Z,15.57
2019-05-10T03:53:45.676Z,15.57
2019-05-10T03:56:35.360Z,15.57
2019-05-10T03:59:24.711Z,15.58
2019-05-10T04:02:14.806Z,15.59
2019-05-10T04:05:06.754Z,15.60
2019-05-10T04:07:56.723Z,15.60
2019-05-10T04:10:46.432Z,15.59
2019-05-10T04:13:37.273Z,15.59
2019-05-10T04:16:27.242Z,15.57
2019-05-10T04:19:16.999Z,15.53
2019-05-10T04:22:07.180Z,15.53
2019-05-10T04:24:56.915Z,15.52
2019-05-10T04:27:46.830Z,15.51
2019-05-10T04:30:37.140Z,15.52
2019-05-10T04:33:27.332Z,15.53
2019-05-10T04:36:18.365Z,15.50
2019-05-10T04:39:09.080Z,15.50
2019-05-10T04:41:58.383Z,15.51
2019-05-10T04:44:52.914Z,15.52
2019-05-10T04:47:40.446Z,15.56
2019-05-10T04:50:31.037Z,15.61
2019-05-10T04:53:20.818Z,15.60
2019-05-10T04:56:10.657Z,15.61
2019-05-10T04:59:00.874Z,15.61
2019-05-10T05:01:50.861Z,15.61
2019-05-10T05:04:41.022Z,15.59
2019-05-10T05:07:30.816Z,15.58
2019-05-10T05:10:20.838Z,15.61
2019-05-10T05:13:10.798Z,15.67
2019-05-10T05:16:00.638Z,15.68
2019-05-10T05:18:50.497Z,15.67
2019-05-10T05:21:40.507Z,15.68
2019-05-10T05:24:30.264Z,15.68
2019-05-10T05:27:20.523Z,15.73
2019-05-10T05:30:11.154Z,15.78
2019-05-10T05:33:00.877Z,15.92
2019-05-10T05:35:50.994Z,16.05
2019-05-10T05:38:47.292Z,16.16
2019-05-10T05:41:32.697Z,16.29
2019-05-10T05:44:26.047Z,16.39
2019-05-10T05:47:14.156Z,16.48
2019-05-10T05:50:04.566Z,16.50
2019-05-10T05:52:54.791Z,16.54
2019-05-10T05:55:44.657Z,16.57
2019-05-10T05:58:38.067Z,16.57
2019-05-10T06:01:29.547Z,16.57
2019-05-10T06:04:18.317Z,16.59
2019-05-10T06:07:08.117Z,16.63
2019-05-10T06:09:57.897Z,16.64
2019-05-10T06:12:50.500Z,16.64
2019-05-10T06:15:39.150Z,16.68
2019-05-10T06:18:29.070Z,16.71
2019-05-10T06:21:25.187Z,16.82
2019-05-10T06:24:13.486Z,16.91
2019-05-10T06:27:03.373Z,16.97
2019-05-10T06:29:54.224Z,17.02
2019-05-10T06:32:44.419Z,17.04
2019-05-10T06:35:34.401Z,17.09
2019-05-10T06:38:24.119Z,17.19
2019-05-10T06:41:17.106Z,17.27
2019-05-10T06:44:05.880Z,17.39
2019-05-10T06:46:55.801Z,17.51
2019-05-10T06:49:50.752Z,17.65
2019-05-10T06:52:37.368Z,17.85
2019-05-10T06:55:29.437Z,18.01
2019-05-10T06:58:19.273Z,18.08
2019-05-10T07:01:09.272Z,18.15
2019-05-10T07:03:59.223Z,18.17
2019-05-10T07:06:49.090Z,18.26
2019-05-10T07:10:01.768Z,18.30
2019-05-10T07:12:30.861Z,18.33
2019-05-10T07:15:20.799Z,18.35
2019-05-10T07:18:10.775Z,18.36
2019-05-10T07:21:06.512Z,18.36
2019-05-10T07:23:52.295Z,18.31
2019-05-10T07:26:42.194Z,18.29
2019-05-10T07:29:41.884Z,18.30
2019-05-10T07:32:24.602Z,18.38
2019-05-10T07:35:15.123Z,18.44
2019-05-10T07:38:05.325Z,18.53
2019-05-10T07:40:55.424Z,18.66
2019-05-10T07:43:48.012Z,18.90
2019-05-10T07:46:39.870Z,19.09
2019-05-10T07:49:30.376Z,19.31
2019-05-10T07:52:18.587Z,19.43
2019-05-10T07:55:10.565Z,19.46
2019-05-10T07:58:04.908Z,19.49
2019-05-10T08:00:55.802Z,19.55
2019-05-10T08:03:48.131Z,19.67
2019-05-10T08:06:43.433Z,19.81
2019-05-10T08:09:31.519Z,19.84
2019-05-10T08:12:19.681Z,19.38
2019-05-10T08:15:10.299Z,19.71
2019-05-10T08:18:00.179Z,19.60
2019-05-10T08:20:56.642Z,19.62
2019-05-10T08:23:43.768Z,19.70
2019-05-10T08:26:33.209Z,19.84
2019-05-10T08:29:23.303Z,20.02
2019-05-10T08:32:13.050Z,20.13
2019-05-10T08:35:05.386Z,20.19
2019-05-10T08:37:55.897Z,20.12
2019-05-10T08:40:46.168Z,19.96
2019-05-10T08:43:38.872Z,19.82
2019-05-10T08:46:37.040Z,19.65
2019-05-10T08:49:21.988Z,19.50
2019-05-10T08:52:12.183Z,19.39
2019-05-10T08:55:02.819Z,19.31
2019-05-10T08:57:53.337Z,19.29
2019-05-10T09:00:54.236Z,19.34
2019-05-10T09:03:34.283Z,19.40
2019-05-10T09:06:24.467Z,19.47
2019-05-10T09:09:14.874Z,19.62
2019-05-10T09:12:08.937Z,19.79
2019-05-10T09:15:05.675Z,19.98
2019-05-10T09:17:48.804Z,20.22
2019-05-10T09:20:38.575Z,20.43
2019-05-10T09:23:28.318Z,20.74
2019-05-10T09:26:18.251Z,21.01
2019-05-10T09:29:08.186Z,21.26
2019-05-10T09:32:01.045Z,21.47
2019-05-10T09:34:49.394Z,21.65
2019-05-10T09:37:38.845Z,21.67
2019-05-10T09:40:28.483Z,21.61
2019-05-10T09:43:21.334Z,21.49
2019-05-10T09:46:11.471Z,21.41
2019-05-10T09:49:09.929Z,21.33
2019-05-10T09:51:55.041Z,21.29
2019-05-10T09:54:49.210Z,21.32
2019-05-10T09:57:37.972Z,21.40
2019-05-10T10:00:37.958Z,21.43
2019-05-10T10:03:30.091Z,21.51
2019-05-10T10:06:19.704Z,21.57
2019-05-10T10:09:11.180Z,21.75
2019-05-10T10:12:03.248Z,21.89
2019-05-10T10:14:52.752Z,21.94
2019-05-10T10:17:43.050Z,21.88
2019-05-10T10:20:35.917Z,21.77
2019-05-10T10:23:30.634Z,21.60
2019-05-10T10:26:22.348Z,21.45
2019-05-10T10:29:10.104Z,21.33
2019-05-10T10:32:00.000Z,21.23
2019-05-10T10:34:54.379Z,21.17
2019-05-10T10:37:41.936Z,21.33
2019-05-10T10:40:35.488Z,21.61
2019-05-10T10:43:23.870Z,21.68
2019-05-10T10:46:16.675Z,21.59
2019-05-10T10:49:05.754Z,21.39
2019-05-10T10:51:57.383Z,21.18
2019-05-10T10:54:48.621Z,21.05
2019-05-10T10:57:38.760Z,20.94
2019-05-10T11:00:39.018Z,20.83
2019-05-10T11:03:30.322Z,20.80
2019-05-10T11:06:19.890Z,20.76
2019-05-10T11:09:10.255Z,20.81
2019-05-10T11:12:00.971Z,20.92
2019-05-10T11:14:51.140Z,21.07
2019-05-10T11:17:41.440Z,21.15
2019-05-10T11:20:32.032Z,21.24
2019-05-10T11:23:26.145Z,21.35
2019-05-10T11:26:13.669Z,21.50
2019-05-10T11:29:03.247Z,21.67
2019-05-10T11:32:11.165Z,21.73
2019-05-10T11:34:44.120Z,21.83
2019-05-10T11:37:36.339Z,22.01
2019-05-10T11:40:30.900Z,22.12
2019-05-10T11:43:22.651Z,22.19
2019-05-10T11:46:08.777Z,22.23
2019-05-10T11:48:58.617Z,22.22
2019-05-10T11:51:54.823Z,22.20
2019-05-10T11:54:41.701Z,22.18
2019-05-10T11:57:32.884Z,22.17
2019-05-10T12:00:31.433Z,22.14
2019-05-10T12:03:19.808Z,22.08
2019-05-10T12:06:09.193Z,22.01
2019-05-10T12:09:02.139Z,21.95
2019-05-10T12:14:46.132Z,22.14
2019-05-10T12:17:34.723Z,22.39
2019-05-10T12:20:38.990Z,22.69
2019-05-10T12:23:22.627Z,22.98
2019-05-10T12:26:27.366Z,21.99
2019-05-10T12:27:13.011Z,23.29
2019-05-10T12:29:11.525Z,23.60
2019-05-10T12:31:53.369Z,23.73
2019-05-10T12:34:46.063Z,23.83
2019-05-10T12:37:39.416Z,23.81
2019-05-10T12:40:27.147Z,23.83
2019-05-10T12:43:17.522Z,23.80
2019-05-10T12:46:07.304Z,23.76
2019-05-10T12:48:57.341Z,23.71
2019-05-10T12:51:47.460Z,23.59
2019-05-10T12:54:37.146Z,23.43
2019-05-10T12:57:26.902Z,23.31
2019-05-10T13:00:19.333Z,23.27
2019-05-10T13:03:12.889Z,23.16
2019-05-10T13:06:00.375Z,22.97
2019-05-10T13:08:50.397Z,22.71
2019-05-10T13:11:40.786Z,22.18
2019-05-10T13:14:31.128Z,21.50
2019-05-10T13:17:22.265Z,20.81
2019-05-10T13:20:12.613Z,20.00
2019-05-10T13:23:02.263Z,19.35
2019-05-10T13:25:52.351Z,18.87
2019-05-10T13:28:42.265Z,18.52
2019-05-10T13:31:32.145Z,18.24
2019-05-10T13:34:24.466Z,18.02
2019-05-10T13:37:23.160Z,17.87
2019-05-10T13:40:08.074Z,17.76
2019-05-10T13:42:57.814Z,17.60
2019-05-10T13:45:47.993Z,17.48
2019-05-10T13:48:38.310Z,17.44
2019-05-10T13:51:28.503Z,17.50
2019-05-10T13:54:18.212Z,17.66
2019-05-10T13:57:08.254Z,17.77
2019-05-10T14:00:01.842Z,17.84
2019-05-10T14:02:49.830Z,17.90
2019-05-10T14:05:40.162Z,18.02
2019-05-10T14:08:30.797Z,18.16
2019-05-10T14:11:20.640Z,18.29
2019-05-10T14:14:14.438Z,18.34
2019-05-10T14:17:02.471Z,18.36
2019-05-10T14:19:52.744Z,18.39
2019-05-10T14:22:48.371Z,18.40
2019-05-10T14:25:36.768Z,18.39
2019-05-10T14:28:26.947Z,18.43
2019-05-10T14:31:17.015Z,18.47
2019-05-10T14:34:15.762Z,18.48
2019-05-10T14:36:59.015Z,18.47
2019-05-10T14:39:48.775Z,18.46
2019-05-10T14:42:38.763Z,18.40
2019-05-10T14:45:28.906Z,18.39
2019-05-10T14:48:28.089Z,18.40
2019-05-10T14:51:13.600Z,18.45
2019-05-10T14:54:06.588Z,18.52
2019-05-10T14:56:55.253Z,18.55
2019-05-10T14:59:46.685Z,18.56
2019-05-10T15:02:36.495Z,18.63
2019-05-10T15:05:25.805Z,18.75
2019-05-10T15:08:15.588Z,18.89
2019-05-10T15:11:06.110Z,19.10
2019-05-10T15:13:56.392Z,19.27
2019-05-10T15:16:46.218Z,19.39
2019-05-10T15:19:35.990Z,19.45
2019-05-10T15:22:26.037Z,19.50
2019-05-10T15:25:16.207Z,19.62
2019-05-10T15:28:06.123Z,19.77
2019-05-10T15:30:55.841Z,19.84
2019-05-10T15:33:45.884Z,19.87
2019-05-10T15:36:35.883Z,19.86
2019-05-10T15:39:28.735Z,19.90
2019-05-10T15:42:17.408Z,19.95
2019-05-10T15:45:11.998Z,20.02
2019-05-10T15:48:02.926Z,20.03
2019-05-10T15:50:51.616Z,20.01
2019-05-10T15:53:41.191Z,20.03
2019-05-10T15:56:35.695Z,20.02
2019-05-10T15:59:22.858Z,20.01
2019-05-10T16:02:14.605Z,20.00
2019-05-10T16:05:22.969Z,20.00
2019-05-10T16:07:56.554Z,20.01
2019-05-10T16:10:46.320Z,20.05
2019-05-10T16:13:37.760Z,20.11
2019-05-10T16:16:37.259Z,20.13
2019-05-10T16:19:22.223Z,20.17
2019-05-10T16:22:12.625Z,20.19
2019-05-10T16:25:02.962Z,20.23
2019-05-10T16:27:52.901Z,20.27
2019-05-10T16:30:42.749Z,20.29
2019-05-10T16:33:32.867Z,20.31
2019-05-10T16:36:27.752Z,20.30
2019-05-10T16:39:14.771Z,20.24
2019-05-10T16:42:04.803Z,20.21
2019-05-10T16:44:54.566Z,20.16
2019-05-10T16:47:45.046Z,20.08
2019-05-10T16:50:35.367Z,19.99
2019-05-10T16:53:24.823Z,19.93
2019-05-10T16:56:19.058Z,19.88
2019-05-10T16:59:06.887Z,19.88
2019-05-10T17:02:03.376Z,19.90
2019-05-10T17:04:48.892Z,19.94
2019-05-10T17:07:38.598Z,20.00
2019-05-10T17:10:32.919Z,20.00
2019-05-10T17:13:20.382Z,19.97
2019-05-10T17:16:11.731Z,19.94
2019-05-10T17:19:02.271Z,19.84
2019-05-10T17:21:52.035Z,19.73
2019-05-10T17:24:41.659Z,19.62
2019-05-10T17:27:32.368Z,19.51
2019-05-10T17:30:27.759Z,19.42
2019-05-10T17:33:15.583Z,19.35
2019-05-10T17:36:08.438Z,19.27
2019-05-10T17:38:56.878Z,19.22
2019-05-10T17:41:46.668Z,19.18
2019-05-10T17:44:37.142Z,19.10
2019-05-10T17:47:27.106Z,19.04
2019-05-10T17:50:19.490Z,18.94
2019-05-10T17:53:09.718Z,18.88
2019-05-10T17:56:02.787Z,18.79
2019-05-10T17:58:51.150Z,18.70
2019-05-10T18:01:41.117Z,18.57
2019-05-10T18:04:30.698Z,18.47
2019-05-10T18:07:20.629Z,18.31
2019-05-10T18:10:10.995Z,18.22
2019-05-10T18:13:03.434Z,18.14
2019-05-10T18:15:53.428Z,18.04
2019-05-10T18:18:47.195Z,17.93
2019-05-10T18:21:35.490Z,17.85
2019-05-10T18:24:24.598Z,17.75
2019-05-10T18:27:14.999Z,17.67
2019-05-10T18:30:05.672Z,17.59
2019-05-10T18:32:54.973Z,17.50
2019-05-10T18:35:47.433Z,17.41
2019-05-10T18:38:39.338Z,17.34
2019-05-10T18:41:29.537Z,17.25
2019-05-10T18:44:19.730Z,17.18
2019-05-10T18:47:09.946Z,17.09
2019-05-10T18:50:00.131Z,17.04
2019-05-10T18:52:49.879Z,16.97
2019-05-10T18:55:41.166Z,16.91
2019-05-10T18:58:31.619Z,16.85
2019-05-10T19:01:21.935Z,16.74
2019-05-10T19:04:14.182Z,16.68
2019-05-10T19:07:09.866Z,16.61
2019-05-10T19:09:54.980Z,16.54
2019-05-10T19:12:45.060Z,16.46
2019-05-10T19:15:34.934Z,16.38
2019-05-10T19:18:25.485Z,16.34
2019-05-10T19:21:15.698Z,16.27
2019-05-10T19:24:05.864Z,16.20
2019-05-10T19:26:55.772Z,16.12
2019-05-10T19:29:47.852Z,16.04
2019-05-10T19:32:37.970Z,15.98
2019-05-10T19:35:29.922Z,15.91
2019-05-10T19:38:19.332Z,15.82
2019-05-10T19:41:09.592Z,15.75
2019-05-10T19:44:02.473Z,15.69
2019-05-10T19:46:51.056Z,15.62
2019-05-10T19:49:45.708Z,15.56
2019-05-10T19:52:32.561Z,15.48
2019-05-10T19:55:22.652Z,15.40
2019-05-10T19:58:12.802Z,15.34
2019-05-10T20:01:02.910Z,15.28
2019-05-10T20:03:53.256Z,15.23
2019-05-10T20:06:43.173Z,15.19
2019-05-10T20:09:33.323Z,15.15
2019-05-10T20:12:23.212Z,15.10
2019-05-10T20:15:13.194Z,15.04
2019-05-10T20:18:03.976Z,15.02
2019-05-10T20:20:53.968Z,14.99
2019-05-10T20:23:43.956Z,14.97
2019-05-10T20:26:34.169Z,14.95
2019-05-10T20:29:24.676Z,14.90
2019-05-10T20:32:14.761Z,14.85
2019-05-10T20:35:04.939Z,14.79
2019-05-10T20:38:01.981Z,14.74
2019-05-10T20:40:46.804Z,14.71
2019-05-10T20:43:36.690Z,14.65
2019-05-10T20:46:26.498Z,14.60
2019-05-10T20:49:16.705Z,14.56
2019-05-10T20:52:07.155Z,14.49
2019-05-10T20:54:57.985Z,14.44
2019-05-10T20:57:48.295Z,14.42
2019-05-10T21:00:38.689Z,14.41
2019-05-10T21:03:28.712Z,14.39
2019-05-10T21:06:18.630Z,14.37
2019-05-10T21:09:08.739Z,14.37
2019-05-10T21:11:58.727Z,14.39
2019-05-10T21:14:48.730Z,14.40
2019-05-10T21:17:38.395Z,14.41
2019-05-10T21:20:28.029Z,14.39
2019-05-10T21:23:18.402Z,14.38
2019-05-10T21:26:08.529Z,14.34
2019-05-10T21:28:58.327Z,14.29
2019-05-10T21:31:48.717Z,14.25
2019-05-10T21:34:38.804Z,14.23
2019-05-10T21:37:28.897Z,14.22
2019-05-10T21:40:18.555Z,14.22
2019-05-10T21:43:08.903Z,14.24
2019-05-10T21:45:58.871Z,14.26
2019-05-10T21:48:48.727Z,14.27
2019-05-10T21:51:39.303Z,14.27
2019-05-10T21:54:29.367Z,14.26
2019-05-10T21:57:19.302Z,14.22
2019-05-10T22:00:09.756Z,14.18
2019-05-10T22:03:01.425Z,14.14
2019-05-10T22:05:51.648Z,14.11
2019-05-10T22:08:49.519Z,14.08
2019-05-10T22:11:32.722Z,14.04
2019-05-10T22:14:22.764Z,14.03
2019-05-10T22:17:12.956Z,13.99
2019-05-10T22:20:02.735Z,13.95
2019-05-10T22:22:52.464Z,13.93
2019-05-10T22:25:42.506Z,13.91
2019-05-10T22:28:32.217Z,13.88
2019-05-10T22:31:21.961Z,13.86
2019-05-10T22:34:11.741Z,13.85
2019-05-10T22:37:01.316Z,13.84
2019-05-10T22:39:51.445Z,13.82
2019-05-10T22:42:41.215Z,13.79
2019-05-10T22:45:31.524Z,13.80
2019-05-10T22:48:21.596Z,13.80
2019-05-10T22:51:11.866Z,13.77
2019-05-10T22:54:01.929Z,13.78
2019-05-10T22:56:51.622Z,13.76
2019-05-10T22:59:41.438Z,13.77
2019-05-10T23:02:31.832Z,13.80
2019-05-10T23:05:22.018Z,13.80
2019-05-10T23:08:12.108Z,13.81
2019-05-10T23:11:02.666Z,13.76
2019-05-10T23:13:52.708Z,13.77
2019-05-10T23:16:43.477Z,13.79
2019-05-10T23:19:32.974Z,13.80
2019-05-10T23:22:22.494Z,13.82
2019-05-10T23:25:12.982Z,13.84
2019-05-10T23:28:02.627Z,13.83
2019-05-10T23:30:52.900Z,13.84
2019-05-10T23:33:43.029Z,13.86
2019-05-10T23:36:32.697Z,13.85
2019-05-10T23:39:22.969Z,13.87
2019-05-10T23:42:12.783Z,13.82
2019-05-10T23:45:02.382Z,13.81
2019-05-10T23:47:52.524Z,13.82
2019-05-10T23:50:42.472Z,13.84
2019-05-10T23:53:32.405Z,13.82
2019-05-10T23:56:23.193Z,13.84
2019-05-10T23:59:13.096Z,13.85
